createdAt,value
2022-10-14T00:00:36.844Z,20.70
2022-10-14T00:01:59.325Z,16.35
2022-10-14T00:03:00.879Z,14.18
2022-10-14T00:04:03.575Z,14.55
2022-10-14T00:05:05.925Z,18.00
2022-10-14T00:06:11.128Z,17.08
2022-10-14T00:07:13.993Z,15.27
2022-10-14T00:08:16.460Z,16.30
2022-10-14T00:09:18.055Z,16.30
2022-10-14T00:10:20.653Z,15.40
2022-10-14T00:11:24.652Z,14.70
2022-10-14T00:12:27.120Z,21.00
2022-10-14T00:13:28.648Z,17.33
2022-10-14T00:14:31.171Z,16.60
2022-10-14T00:15:37.919Z,14.88
2022-10-14T00:16:42.228Z,20.83
2022-10-14T00:17:43.793Z,14.63
2022-10-14T00:18:46.316Z,19.48
2022-10-14T00:19:48.114Z,15.88
2022-10-14T00:20:55.645Z,19.10
2022-10-14T00:21:57.245Z,17.17
2022-10-14T00:23:01.354Z,17.65
2022-10-14T00:24:02.983Z,17.15
2022-10-14T00:25:06.106Z,17.63
2022-10-14T00:26:18.258Z,24.25
2022-10-14T00:27:21.113Z,17.65
2022-10-14T00:28:22.866Z,17.77
2022-10-14T00:29:25.349Z,19.33
2022-10-14T00:30:27.295Z,19.00
2022-10-14T00:31:30.153Z,19.77
2022-10-14T00:32:31.716Z,21.10
2022-10-14T00:33:34.223Z,19.42
2022-10-14T00:34:35.799Z,18.60
2022-10-14T00:35:38.356Z,19.20
2022-10-14T00:36:40.315Z,17.70
2022-10-14T00:37:42.842Z,17.83
2022-10-14T00:38:46.549Z,15.63
2022-10-14T00:39:52.309Z,22.95
2022-10-14T00:40:56.738Z,19.95
2022-10-14T00:41:59.224Z,17.33
2022-10-14T00:43:00.756Z,18.70
2022-10-14T00:44:06.259Z,22.17
2022-10-14T00:45:13.989Z,20.30
2022-10-14T00:46:16.639Z,15.20
2022-10-14T00:47:18.543Z,19.17
2022-10-14T00:48:24.445Z,20.23
2022-10-14T00:49:29.789Z,18.35
2022-10-14T00:50:32.716Z,19.83
2022-10-14T00:51:36.737Z,15.75
2022-10-14T00:52:39.519Z,17.35
2022-10-14T00:53:43.117Z,17.95
2022-10-14T00:54:50.886Z,21.08
2022-10-14T00:55:53.493Z,20.30
2022-10-14T00:56:55.529Z,24.25
2022-10-14T00:57:58.048Z,22.25
2022-10-14T00:59:02.610Z,16.98
2022-10-14T01:00:09.114Z,17.05
2022-10-14T01:01:13.304Z,19.27
2022-10-14T01:02:15.865Z,20.38
2022-10-14T01:03:19.699Z,21.48
2022-10-14T01:04:22.503Z,20.52
2022-10-14T01:05:31.494Z,19.80
2022-10-14T01:06:43.789Z,20.67
2022-10-14T01:07:56.945Z,15.95
2022-10-14T01:09:03.525Z,19.30
2022-10-14T01:10:13.945Z,17.70
2022-10-14T01:11:24.810Z,16.70
2022-10-14T01:12:38.401Z,17.30
2022-10-14T01:13:47.573Z,17.55
2022-10-14T01:14:59.098Z,22.88
2022-10-14T01:16:15.414Z,24.73
2022-10-14T01:17:30.247Z,17.27
2022-10-14T01:18:56.324Z,16.98
2022-10-14T01:20:27.908Z,21.20
2022-10-14T01:21:37.365Z,21.65
2022-10-14T01:22:46.847Z,20.35
2022-10-14T01:24:16.285Z,18.40
2022-10-14T01:25:25.895Z,22.25
2022-10-14T01:26:44.191Z,21.05
2022-10-14T01:28:20.788Z,18.85
2022-10-14T01:29:53.972Z,21.60
2022-10-14T01:31:01.896Z,17.00
2022-10-14T01:32:10.375Z,20.17
2022-10-14T01:33:16.353Z,20.35
2022-10-14T01:34:25.463Z,19.50
2022-10-14T01:35:40.406Z,20.77
2022-10-14T01:36:45.820Z,20.25
2022-10-14T01:37:53.778Z,20.58
2022-10-14T01:39:01.005Z,17.20
2022-10-14T01:40:09.588Z,18.48
2022-10-14T01:41:17.711Z,18.48
2022-10-14T01:42:26.265Z,16.73
2022-10-14T01:43:30.423Z,17.90
2022-10-14T01:44:35.885Z,17.25
2022-10-14T01:45:41.890Z,23.27
2022-10-14T01:46:50.926Z,15.77
2022-10-14T01:47:54.703Z,19.63
2022-10-14T01:49:01.380Z,15.30
2022-10-14T01:50:07.772Z,16.30
2022-10-14T01:51:20.710Z,23.08
2022-10-14T01:52:28.375Z,18.27
2022-10-14T01:53:35.324Z,16.25
2022-10-14T01:54:41.248Z,15.85
2022-10-14T01:55:46.927Z,13.35
2022-10-14T01:56:50.301Z,15.65
2022-10-14T01:57:56.783Z,19.00
2022-10-14T01:59:01.939Z,14.82
2022-10-14T02:00:05.738Z,17.38
2022-10-14T02:01:11.244Z,17.73
2022-10-14T02:02:13.559Z,17.83
2022-10-14T02:03:16.284Z,18.65
2022-10-14T02:04:19.960Z,19.77
2022-10-14T02:05:29.008Z,16.48
2022-10-14T02:06:35.972Z,18.50
2022-10-14T02:07:42.368Z,19.13
2022-10-14T02:09:04.455Z,21.13
2022-10-14T02:10:15.381Z,20.27
2022-10-14T02:11:19.874Z,19.30
2022-10-14T02:12:31.093Z,21.45
2022-10-14T02:13:53.055Z,20.25
2022-10-14T02:15:11.646Z,19.67
2022-10-14T02:16:25.425Z,23.33
2022-10-14T02:17:32.991Z,23.13
2022-10-14T02:18:40.837Z,21.05
2022-10-14T02:19:47.544Z,22.88
2022-10-14T02:20:58.202Z,23.15
2022-10-14T02:22:05.838Z,25.00
2022-10-14T02:23:15.028Z,26.92
2022-10-14T02:24:21.555Z,23.65
2022-10-14T02:25:28.404Z,21.33
2022-10-14T02:26:31.016Z,21.63
2022-10-14T02:27:34.964Z,25.60
2022-10-14T02:28:39.607Z,23.80
2022-10-14T02:29:47.137Z,23.63
2022-10-14T02:30:52.100Z,28.48
2022-10-14T02:31:57.673Z,23.75
2022-10-14T02:33:00.965Z,32.78
2022-10-14T02:34:06.855Z,26.02
2022-10-14T02:35:10.887Z,25.60
2022-10-14T02:36:17.734Z,21.00
2022-10-14T02:37:22.257Z,21.25
2022-10-14T02:38:32.042Z,22.27
2022-10-14T02:39:37.268Z,23.98
2022-10-14T02:40:43.891Z,26.00
2022-10-14T02:41:48.677Z,23.65
2022-10-14T02:42:51.430Z,25.45
2022-10-14T02:43:58.997Z,24.60
2022-10-14T02:45:03.347Z,23.20
2022-10-14T02:46:06.584Z,30.23
2022-10-14T02:47:10.633Z,25.35
2022-10-14T02:48:13.460Z,20.95
2022-10-14T02:49:19.443Z,20.00
2022-10-14T02:50:21.643Z,26.33
2022-10-14T02:51:27.987Z,22.17
2022-10-14T02:52:30.229Z,25.48
2022-10-14T02:53:33.760Z,19.73
2022-10-14T02:54:35.827Z,21.08
2022-10-14T02:55:39.991Z,21.45
2022-10-14T02:56:43.440Z,22.83
2022-10-14T02:57:46.333Z,21.02
2022-10-14T02:58:48.702Z,27.25
2022-10-14T02:59:51.538Z,24.27
2022-10-14T03:00:53.127Z,22.33
2022-10-14T03:01:55.670Z,26.70
2022-10-14T03:02:58.794Z,24.48
2022-10-14T03:04:01.444Z,20.50
2022-10-14T03:05:03.235Z,20.77
2022-10-14T03:06:06.067Z,23.58
2022-10-14T03:07:07.827Z,23.63
2022-10-14T03:08:10.830Z,21.30
2022-10-14T03:09:12.393Z,22.50
2022-10-14T03:10:15.068Z,23.35
2022-10-14T03:11:16.724Z,22.00
2022-10-14T03:12:19.863Z,23.90
2022-10-14T03:13:22.928Z,22.00
2022-10-14T03:14:25.583Z,22.88
2022-10-14T03:15:27.105Z,25.83
2022-10-14T03:16:29.816Z,24.67
2022-10-14T03:17:31.421Z,20.95
2022-10-14T03:18:35.278Z,30.05
2022-10-14T03:19:37.504Z,27.38
2022-10-14T03:20:40.023Z,22.67
2022-10-14T03:21:41.571Z,26.15
2022-10-14T03:22:44.027Z,25.90
2022-10-14T03:23:45.740Z,20.67
2022-10-14T03:24:48.369Z,24.77
2022-10-14T03:25:51.074Z,33.58
2022-10-14T03:26:53.668Z,25.73
2022-10-14T03:27:55.186Z,22.05
2022-10-14T03:28:57.873Z,22.55
2022-10-14T03:29:59.476Z,22.80
2022-10-14T03:31:01.992Z,24.27
2022-10-14T03:32:03.685Z,19.95
2022-10-14T03:33:06.282Z,22.83
2022-10-14T03:34:09.953Z,25.63
2022-10-14T03:35:12.471Z,19.52
2022-10-14T03:36:14.976Z,24.63
2022-10-14T03:37:16.485Z,20.75
2022-10-14T03:38:19.079Z,21.60
2022-10-14T03:39:20.588Z,20.45
2022-10-14T03:40:23.593Z,20.35
2022-10-14T03:41:25.166Z,24.00
2022-10-14T03:42:27.705Z,27.35
2022-10-14T03:43:29.568Z,21.10
2022-10-14T03:44:32.148Z,24.85
2022-10-14T03:45:33.704Z,23.25
2022-10-14T03:46:36.201Z,23.58
2022-10-14T03:47:37.745Z,23.65
2022-10-14T03:48:40.248Z,21.48
2022-10-14T03:49:43.139Z,21.35
2022-10-14T03:50:45.694Z,22.50
2022-10-14T03:51:47.310Z,20.23
2022-10-14T03:52:53.375Z,23.05
2022-10-14T03:53:57.084Z,20.95
2022-10-14T03:54:59.809Z,20.88
2022-10-14T03:56:03.128Z,18.65
2022-10-14T03:57:04.777Z,18.02
2022-10-14T03:58:07.754Z,18.23
2022-10-14T03:59:09.287Z,18.02
2022-10-14T04:00:13.105Z,18.25
2022-10-14T04:01:17.338Z,18.33
2022-10-14T04:02:19.230Z,17.52
2022-10-14T04:03:21.966Z,20.58
2022-10-14T04:04:26.427Z,22.05
2022-10-14T04:05:33.660Z,19.55
2022-10-14T04:06:35.284Z,20.60
2022-10-14T04:07:37.765Z,19.85
2022-10-14T04:08:39.260Z,25.10
2022-10-14T04:09:42.086Z,16.48
2022-10-14T04:10:43.592Z,18.65
2022-10-14T04:11:46.335Z,20.05
2022-10-14T04:12:48.450Z,20.08
2022-10-14T04:13:50.998Z,17.08
2022-10-14T04:14:52.908Z,20.73
2022-10-14T04:15:55.407Z,21.25
2022-10-14T04:16:56.942Z,18.27
2022-10-14T04:17:59.463Z,16.45
2022-10-14T04:19:01.284Z,18.27
2022-10-14T04:20:04.111Z,19.60
2022-10-14T04:21:10.414Z,15.00
2022-10-14T04:22:12.876Z,16.95
2022-10-14T04:23:14.400Z,20.48
2022-10-14T04:24:16.939Z,15.70
2022-10-14T04:25:18.546Z,15.85
2022-10-14T04:26:21.024Z,15.80
2022-10-14T04:27:22.542Z,18.17
2022-10-14T04:28:25.279Z,18.33
2022-10-14T04:29:26.914Z,17.48
2022-10-14T04:30:29.465Z,16.17
2022-10-14T04:31:31.099Z,19.35
2022-10-14T04:32:33.657Z,16.90
2022-10-14T04:33:35.452Z,14.30
2022-10-14T04:34:37.962Z,19.00
2022-10-14T04:35:39.489Z,16.05
2022-10-14T04:36:43.432Z,24.90
2022-10-14T04:37:44.959Z,18.38
2022-10-14T04:38:47.513Z,16.30
2022-10-14T04:39:51.179Z,16.20
2022-10-14T04:40:54.063Z,16.80
2022-10-14T04:41:55.593Z,19.05
2022-10-14T04:42:59.267Z,16.65
2022-10-14T04:44:00.783Z,15.73
2022-10-14T04:45:03.294Z,16.70
2022-10-14T04:46:05.468Z,18.40
2022-10-14T04:47:07.932Z,15.75
2022-10-14T04:48:09.685Z,12.00
2022-10-14T04:49:12.633Z,16.30
2022-10-14T04:50:14.345Z,16.70
2022-10-14T04:51:16.842Z,19.15
2022-10-14T04:52:20.906Z,16.33
2022-10-14T04:53:22.663Z,16.45
2022-10-14T04:54:25.543Z,15.18
2022-10-14T04:55:27.043Z,18.70
2022-10-14T04:56:29.516Z,16.73
2022-10-14T04:57:31.000Z,13.07
2022-10-14T04:58:33.539Z,14.93
2022-10-14T04:59:35.130Z,16.20
2022-10-14T05:00:37.593Z,17.75
2022-10-14T05:01:39.321Z,15.15
2022-10-14T05:02:41.881Z,15.75
2022-10-14T05:03:43.624Z,18.10
2022-10-14T05:04:46.093Z,14.52
2022-10-14T05:05:47.615Z,18.70
2022-10-14T05:06:50.149Z,16.33
2022-10-14T05:07:52.970Z,19.45
2022-10-14T05:08:55.611Z,20.50
2022-10-14T05:09:57.246Z,16.83
2022-10-14T05:11:00.072Z,15.82
2022-10-14T05:12:01.645Z,18.05
2022-10-14T05:13:04.244Z,13.93
2022-10-14T05:14:07.047Z,16.30
2022-10-14T05:15:09.558Z,17.40
2022-10-14T05:16:12.138Z,12.93
2022-10-14T05:17:14.252Z,13.75
2022-10-14T05:18:16.784Z,15.95
2022-10-14T05:19:18.339Z,16.52
2022-10-14T05:20:21.176Z,16.90
2022-10-14T05:21:22.805Z,16.08
2022-10-14T05:22:25.627Z,15.35
2022-10-14T05:23:28.503Z,17.05
2022-10-14T05:24:31.038Z,18.85
2022-10-14T05:25:32.577Z,16.73
2022-10-14T05:26:35.092Z,13.82
2022-10-14T05:27:36.572Z,21.33
2022-10-14T05:28:39.177Z,15.45
2022-10-14T05:29:40.840Z,13.63
2022-10-14T05:30:43.357Z,18.88
2022-10-14T05:31:44.924Z,12.50
2022-10-14T05:32:47.431Z,13.35
2022-10-14T05:33:48.957Z,12.40
2022-10-14T05:34:51.437Z,15.40
2022-10-14T05:36:00.147Z,14.70
2022-10-14T05:37:02.787Z,14.65
2022-10-14T05:38:05.944Z,18.30
2022-10-14T05:39:09.236Z,13.57
2022-10-14T05:40:12.254Z,16.65
2022-10-14T05:41:13.824Z,14.38
2022-10-14T05:42:16.379Z,13.82
2022-10-14T05:43:17.862Z,16.30
2022-10-14T05:44:20.333Z,13.93
2022-10-14T05:45:22.023Z,19.75
2022-10-14T05:46:24.554Z,14.88
2022-10-14T05:47:26.129Z,13.60
2022-10-14T05:48:28.734Z,13.43
2022-10-14T05:49:31.224Z,12.70
2022-10-14T05:50:32.728Z,16.10
2022-10-14T05:51:35.239Z,15.45
2022-10-14T05:52:37.259Z,13.43
2022-10-14T05:53:40.124Z,13.45
2022-10-14T05:54:42.996Z,14.63
2022-10-14T05:55:46.312Z,14.05
2022-10-14T05:56:47.909Z,16.02
2022-10-14T05:57:50.700Z,14.00
2022-10-14T05:58:52.277Z,17.15
2022-10-14T05:59:54.840Z,14.30
2022-10-14T06:00:59.552Z,13.68
2022-10-14T06:02:02.828Z,17.55
2022-10-14T06:03:04.624Z,13.68
2022-10-14T06:04:07.990Z,12.13
2022-10-14T06:05:09.708Z,13.45
2022-10-14T06:06:13.965Z,17.90
2022-10-14T06:07:15.658Z,15.35
2022-10-14T06:08:18.285Z,12.60
2022-10-14T06:09:20.208Z,12.57
2022-10-14T06:10:24.246Z,15.82
2022-10-14T06:11:26.029Z,16.13
2022-10-14T06:12:28.949Z,13.00
2022-10-14T06:13:30.594Z,24.65
2022-10-14T06:14:33.201Z,15.30
2022-10-14T06:15:34.860Z,15.30
2022-10-14T06:16:37.379Z,15.38
2022-10-14T06:17:38.909Z,15.35
2022-10-14T06:18:42.780Z,13.40
2022-10-14T06:19:45.484Z,14.05
2022-10-14T06:20:51.974Z,13.75
2022-10-14T06:21:54.746Z,14.80
2022-10-14T06:22:56.273Z,12.98
2022-10-14T06:23:58.761Z,14.13
2022-10-14T06:25:03.969Z,16.40
2022-10-14T06:26:09.945Z,14.05
2022-10-14T06:27:11.532Z,16.05
2022-10-14T06:28:14.208Z,11.75
2022-10-14T06:29:17.292Z,15.65
2022-10-14T06:30:19.881Z,14.38
2022-10-14T06:31:21.473Z,12.38
2022-10-14T06:32:24.393Z,14.75
2022-10-14T06:33:28.470Z,16.52
2022-10-14T06:34:30.959Z,12.82
2022-10-14T06:35:32.780Z,17.75
2022-10-14T06:36:35.806Z,14.98
2022-10-14T06:37:38.778Z,10.02
2022-10-14T06:38:43.637Z,11.40
2022-10-14T06:39:45.242Z,14.30
2022-10-14T06:40:47.991Z,11.15
2022-10-14T06:41:50.890Z,12.15
2022-10-14T06:42:53.717Z,17.35
2022-10-14T06:43:56.207Z,11.07
2022-10-14T06:44:57.821Z,12.27
2022-10-14T06:46:00.463Z,17.95
2022-10-14T06:47:02.081Z,12.45
2022-10-14T06:48:05.302Z,15.05
2022-10-14T06:49:06.872Z,14.60
2022-10-14T06:50:09.379Z,14.57
2022-10-14T06:51:11.887Z,16.10
2022-10-14T06:52:13.536Z,16.52
2022-10-14T06:53:16.036Z,15.52
2022-10-14T06:54:17.583Z,10.82
2022-10-14T06:55:20.105Z,18.02
2022-10-14T06:56:21.612Z,11.90
2022-10-14T06:57:25.750Z,10.82
2022-10-14T06:58:27.643Z,12.25
2022-10-14T06:59:30.113Z,13.98
2022-10-14T07:00:32.604Z,13.35
2022-10-14T07:01:34.197Z,13.65
2022-10-14T07:02:38.340Z,12.48
2022-10-14T07:03:40.835Z,12.60
2022-10-14T07:04:42.339Z,9.75
2022-10-14T07:05:44.796Z,13.35
2022-10-14T07:06:47.536Z,11.18
2022-10-14T07:07:51.111Z,12.77
2022-10-14T07:08:54.023Z,12.90
2022-10-14T07:09:58.003Z,12.02
2022-10-14T07:11:00.095Z,13.98
2022-10-14T07:12:03.076Z,15.98
2022-10-14T07:13:06.190Z,15.18
2022-10-14T07:14:09.508Z,11.05
2022-10-14T07:15:11.078Z,14.57
2022-10-14T07:16:13.666Z,9.90
2022-10-14T07:17:15.178Z,11.80
2022-10-14T07:18:17.639Z,13.88
2022-10-14T07:19:19.522Z,11.60
2022-10-14T07:20:22.196Z,12.13
2022-10-14T07:21:24.644Z,13.65
2022-10-14T07:22:27.149Z,10.35
2022-10-14T07:23:28.707Z,10.98
2022-10-14T07:24:31.188Z,13.43
2022-10-14T07:25:32.941Z,13.02
2022-10-14T07:26:35.592Z,12.27
2022-10-14T07:27:37.283Z,11.30
2022-10-14T07:28:41.210Z,16.30
2022-10-14T07:29:42.865Z,12.00
2022-10-14T07:30:45.323Z,11.38
2022-10-14T07:31:47.853Z,11.73
2022-10-14T07:32:49.376Z,12.95
2022-10-14T07:33:51.837Z,12.80
2022-10-14T07:34:53.393Z,10.68
2022-10-14T07:35:55.973Z,10.52
2022-10-14T07:36:57.574Z,13.25
2022-10-14T07:38:00.833Z,13.15
2022-10-14T07:39:02.893Z,14.25
2022-10-14T07:40:06.562Z,10.48
2022-10-14T07:41:16.739Z,12.30
2022-10-14T07:43:26.748Z,14.90
2022-10-14T07:44:29.638Z,12.25
2022-10-14T07:45:35.602Z,11.40
2022-10-14T07:46:39.391Z,11.80
2022-10-14T07:47:41.853Z,10.82
2022-10-14T07:48:56.757Z,9.88
2022-10-14T07:50:01.261Z,11.95
2022-10-14T07:51:03.004Z,9.45
2022-10-14T07:52:06.128Z,13.00
2022-10-14T07:53:07.653Z,18.80
2022-10-14T07:54:14.056Z,10.55
2022-10-14T07:55:15.710Z,11.10
2022-10-14T07:56:18.381Z,10.80
2022-10-14T07:57:23.899Z,9.65
2022-10-14T07:58:30.520Z,8.82
2022-10-14T07:59:33.521Z,9.15
2022-10-14T08:00:36.424Z,9.00
2022-10-14T08:01:38.369Z,7.43
2022-10-14T08:02:41.189Z,9.57
2022-10-14T08:03:45.624Z,11.73
2022-10-14T08:04:48.234Z,9.57
2022-10-14T08:05:50.332Z,11.70
2022-10-14T08:06:54.421Z,11.38
2022-10-14T08:07:57.750Z,16.13
2022-10-14T08:09:00.563Z,17.95
2022-10-14T08:10:02.939Z,10.10
2022-10-14T08:11:08.011Z,8.05
2022-10-14T08:12:09.742Z,12.27
2022-10-14T08:13:12.213Z,10.65
2022-10-14T08:14:14.032Z,10.10
2022-10-14T08:15:18.079Z,7.53
2022-10-14T08:16:21.414Z,8.07
2022-10-14T08:17:23.940Z,8.73
2022-10-14T08:18:26.329Z,10.98
2022-10-14T08:19:28.780Z,8.20
2022-10-14T08:20:30.424Z,10.45
2022-10-14T08:21:32.970Z,9.98
2022-10-14T08:22:34.820Z,9.48
2022-10-14T08:23:37.289Z,10.65
2022-10-14T08:24:39.839Z,8.75
2022-10-14T08:25:41.848Z,9.77
2022-10-14T08:26:51.100Z,10.30
2022-10-14T08:27:54.084Z,9.38
2022-10-14T08:28:56.745Z,10.05
2022-10-14T08:29:58.373Z,9.95
2022-10-14T08:31:02.200Z,17.13
2022-10-14T08:32:03.980Z,7.53
2022-10-14T08:33:06.443Z,7.60
2022-10-14T08:34:08.021Z,10.48
2022-10-14T08:35:12.695Z,9.52
2022-10-14T08:36:16.091Z,9.18
2022-10-14T08:37:18.627Z,9.30
2022-10-14T08:38:25.003Z,7.50
2022-10-14T08:39:27.750Z,15.70
2022-10-14T08:40:30.654Z,9.00
2022-10-14T08:41:46.803Z,14.88
2022-10-14T08:42:54.645Z,7.95
2022-10-14T08:44:08.822Z,7.95
2022-10-14T08:45:16.062Z,9.30
2022-10-14T08:46:26.612Z,8.50
2022-10-14T08:47:36.624Z,9.95
2022-10-14T08:48:38.954Z,13.40
2022-10-14T08:49:53.485Z,8.88
2022-10-14T08:50:59.825Z,9.48
2022-10-14T08:52:07.068Z,9.77
2022-10-14T08:53:14.503Z,11.95
2022-10-14T08:54:29.339Z,10.02
2022-10-14T08:55:36.583Z,9.25
2022-10-14T08:56:39.406Z,9.65
2022-10-14T08:57:47.846Z,10.48
2022-10-14T08:58:52.500Z,9.60
2022-10-14T08:59:54.402Z,9.48
2022-10-14T09:00:57.806Z,10.65
2022-10-14T09:02:04.393Z,9.52
2022-10-14T09:03:16.923Z,10.77
2022-10-14T09:04:20.053Z,10.38
2022-10-14T09:05:23.773Z,12.35
2022-10-14T09:06:28.533Z,9.48
2022-10-14T09:07:31.894Z,8.18
2022-10-14T09:08:38.393Z,7.85
2022-10-14T09:09:42.436Z,10.27
2022-10-14T09:10:45.464Z,10.23
2022-10-14T09:11:51.783Z,8.77
2022-10-14T09:12:57.754Z,11.85
2022-10-14T09:14:01.766Z,9.35
2022-10-14T09:15:12.113Z,9.60
2022-10-14T09:16:20.258Z,9.30
2022-10-14T09:17:27.426Z,9.10
2022-10-14T09:18:36.302Z,14.43
2022-10-14T09:19:46.815Z,11.30
2022-10-14T09:20:49.686Z,13.88
2022-10-14T09:21:54.737Z,7.22
2022-10-14T09:23:07.205Z,10.95
2022-10-14T09:24:13.469Z,8.30
2022-10-14T09:25:17.602Z,9.10
2022-10-14T09:26:20.010Z,8.13
2022-10-14T09:27:24.056Z,12.00
2022-10-14T09:28:36.108Z,8.45
2022-10-14T09:29:43.999Z,10.88
2022-10-14T09:30:45.637Z,6.65
2022-10-14T09:31:48.947Z,9.13
2022-10-14T09:32:55.523Z,8.50
2022-10-14T09:33:57.160Z,7.70
2022-10-14T09:35:00.843Z,8.10
2022-10-14T09:36:02.495Z,7.78
2022-10-14T09:37:23.725Z,12.77
2022-10-14T09:38:27.842Z,8.98
2022-10-14T09:39:30.863Z,13.30
2022-10-14T09:40:36.192Z,8.35
2022-10-14T09:41:38.985Z,8.20
2022-10-14T09:42:49.831Z,7.30
2022-10-14T09:44:21.145Z,9.60
2022-10-14T09:45:25.376Z,7.15
2022-10-14T09:46:27.033Z,8.15
2022-10-14T09:47:30.165Z,9.05
2022-10-14T09:48:38.610Z,10.53
2022-10-14T09:49:43.819Z,9.73
2022-10-14T09:50:51.483Z,10.50
2022-10-14T09:51:56.734Z,9.10
2022-10-14T09:53:02.396Z,9.13
2022-10-14T09:54:05.793Z,8.73
2022-10-14T09:55:18.668Z,8.00
2022-10-14T09:56:30.130Z,7.75
2022-10-14T09:57:32.615Z,11.20
2022-10-14T09:58:39.122Z,6.60
2022-10-14T09:59:53.688Z,10.68
2022-10-14T10:00:58.358Z,6.95
2022-10-14T10:02:02.649Z,11.85
2022-10-14T10:03:06.821Z,11.00
2022-10-14T10:04:36.761Z,10.03
2022-10-14T10:05:38.432Z,11.40
2022-10-14T10:06:52.963Z,10.02
2022-10-14T10:08:17.230Z,8.40
2022-10-14T10:09:20.006Z,7.93
2022-10-14T10:10:23.187Z,10.93
2022-10-14T10:11:30.745Z,7.57
2022-10-14T10:12:34.280Z,9.52
2022-10-14T10:13:44.405Z,7.23
2022-10-14T10:14:57.052Z,8.73
2022-10-14T10:16:01.121Z,7.57
2022-10-14T10:17:16.607Z,8.13
2022-10-14T10:18:19.157Z,7.85
2022-10-14T10:19:32.942Z,10.80
2022-10-14T10:20:35.891Z,7.65
2022-10-14T10:21:38.398Z,9.67
2022-10-14T10:22:39.972Z,10.13
2022-10-14T10:23:52.013Z,11.73
2022-10-14T10:25:17.749Z,8.80
2022-10-14T10:26:26.487Z,8.00
2022-10-14T10:27:31.383Z,8.50
2022-10-14T10:28:34.470Z,11.07
2022-10-14T10:29:37.145Z,13.10
2022-10-14T10:30:49.485Z,9.38
2022-10-14T10:32:08.448Z,11.00
2022-10-14T10:33:22.359Z,8.07
2022-10-14T10:34:51.903Z,10.32
2022-10-14T10:36:12.832Z,13.27
2022-10-14T10:37:26.049Z,7.83
2022-10-14T10:38:32.613Z,11.20
2022-10-14T10:39:44.089Z,8.33
2022-10-14T10:40:55.009Z,9.60
2022-10-14T10:42:06.272Z,7.45
2022-10-14T10:43:32.314Z,9.40
2022-10-14T10:45:07.042Z,9.90
2022-10-14T10:46:21.220Z,8.70
2022-10-14T10:47:33.363Z,7.23
2022-10-14T10:48:42.997Z,6.00
2022-10-14T10:50:10.346Z,9.33
2022-10-14T10:51:16.288Z,7.70
2022-10-14T10:52:30.608Z,9.23
2022-10-14T10:54:00.438Z,9.57
2022-10-14T10:55:11.090Z,10.07
2022-10-14T10:56:27.338Z,9.70
2022-10-14T10:57:45.850Z,10.90
2022-10-14T10:59:03.113Z,9.03
2022-10-14T11:00:11.985Z,9.47
2022-10-14T11:01:32.746Z,13.33
2022-10-14T11:03:09.502Z,8.48
2022-10-14T11:04:25.782Z,9.55
2022-10-14T11:05:45.183Z,11.57
2022-10-14T11:07:15.041Z,9.63
2022-10-14T11:08:48.034Z,8.77
2022-10-14T11:10:18.382Z,12.40
2022-10-14T11:11:45.557Z,15.75
2022-10-14T11:12:59.552Z,13.17
2022-10-14T11:14:13.737Z,12.70
2022-10-14T11:15:28.379Z,8.90
2022-10-14T11:16:38.867Z,13.40
2022-10-14T11:17:49.417Z,11.52
2022-10-14T11:19:02.712Z,12.17
2022-10-14T11:20:17.454Z,16.40
2022-10-14T11:21:30.899Z,14.10
2022-10-14T11:22:50.871Z,13.13
2022-10-14T11:24:03.590Z,10.97
2022-10-14T11:25:22.567Z,11.60
2022-10-14T11:26:42.033Z,11.87
2022-10-14T11:27:49.563Z,10.60
2022-10-14T11:28:59.716Z,13.07
2022-10-14T11:30:13.775Z,16.10
2022-10-14T11:31:27.558Z,11.45
2022-10-14T11:32:40.429Z,15.13
2022-10-14T11:34:01.411Z,10.77
2022-10-14T11:35:18.985Z,14.20
2022-10-14T11:36:33.145Z,15.35
2022-10-14T11:37:51.967Z,19.33
2022-10-14T11:39:14.675Z,9.07
2022-10-14T11:40:24.262Z,15.07
2022-10-14T11:41:52.907Z,15.70
2022-10-14T11:43:09.782Z,12.00
2022-10-14T11:44:22.389Z,12.88
2022-10-14T11:45:46.547Z,18.40
2022-10-14T11:46:56.260Z,11.57
2022-10-14T11:48:08.287Z,16.38
2022-10-14T11:49:19.873Z,16.03
2022-10-14T11:50:26.178Z,13.73
2022-10-14T11:51:37.093Z,13.07
2022-10-14T11:52:45.590Z,17.50
2022-10-14T11:54:03.383Z,13.88
2022-10-14T11:55:13.806Z,13.30
2022-10-14T11:56:38.439Z,13.50
2022-10-14T11:57:45.547Z,10.40
2022-10-14T11:58:49.166Z,14.27
2022-10-14T11:59:59.437Z,13.18
2022-10-14T12:01:03.978Z,13.20
2022-10-14T12:02:20.759Z,15.30
2022-10-14T12:03:30.047Z,16.17
2022-10-14T12:04:36.863Z,14.20
2022-10-14T12:05:45.349Z,17.43
2022-10-14T12:06:55.640Z,15.40
2022-10-14T12:08:07.845Z,14.17
2022-10-14T12:09:16.669Z,13.83
2022-10-14T12:10:26.724Z,13.30
2022-10-14T12:11:31.780Z,14.43
2022-10-14T12:12:36.420Z,14.93
2022-10-14T12:13:44.402Z,19.95
2022-10-14T12:14:50.966Z,13.40
2022-10-14T12:15:54.968Z,17.60
2022-10-14T12:16:58.689Z,13.27
2022-10-14T12:18:02.061Z,18.30
2022-10-14T12:19:05.766Z,18.30
2022-10-14T12:20:21.543Z,13.87
2022-10-14T12:21:30.429Z,21.43
2022-10-14T12:22:34.846Z,17.13
2022-10-14T12:23:43.621Z,18.98
2022-10-14T12:24:51.321Z,15.38
2022-10-14T12:26:01.035Z,12.47
2022-10-14T12:27:05.534Z,18.80
2022-10-14T12:28:10.256Z,13.13
2022-10-14T12:29:15.607Z,15.70
2022-10-14T12:30:35.092Z,15.97
2022-10-14T12:31:39.745Z,18.30
2022-10-14T12:33:01.326Z,17.03
2022-10-14T12:34:27.450Z,15.70
2022-10-14T12:36:00.897Z,17.05
2022-10-14T12:37:51.054Z,14.75
2022-10-14T12:39:31.537Z,15.80
2022-10-14T12:40:36.488Z,18.98
2022-10-14T12:41:40.418Z,18.93
2022-10-14T12:42:58.611Z,18.13
2022-10-14T12:44:03.097Z,15.50
2022-10-14T12:45:16.645Z,18.33
2022-10-14T12:46:19.226Z,15.17
2022-10-14T12:47:23.931Z,20.17
2022-10-14T12:48:30.848Z,19.57
2022-10-14T12:49:35.904Z,17.00
2022-10-14T12:50:38.787Z,20.33
2022-10-14T12:51:54.349Z,17.90
2022-10-14T12:52:59.828Z,18.17
2022-10-14T12:54:08.488Z,17.77
2022-10-14T12:55:18.562Z,15.33
2022-10-14T12:56:34.465Z,16.80
2022-10-14T12:57:40.071Z,15.98
2022-10-14T12:59:01.024Z,14.37
2022-10-14T13:00:31.750Z,19.23
2022-10-14T13:01:36.394Z,20.00
2022-10-14T13:02:45.790Z,18.70
2022-10-14T13:03:55.227Z,16.87
2022-10-14T13:04:57.915Z,16.80
2022-10-14T13:06:27.341Z,14.20
2022-10-14T13:07:41.063Z,16.17
2022-10-14T13:09:23.050Z,28.63
2022-10-14T13:11:10.047Z,15.17
2022-10-14T13:12:40.823Z,17.17
2022-10-14T13:14:02.530Z,15.17
2022-10-14T13:15:05.322Z,16.63
2022-10-14T13:16:08.254Z,17.13
2022-10-14T13:17:29.937Z,20.25
2022-10-14T13:18:50.706Z,19.08
2022-10-14T13:19:53.195Z,22.20
2022-10-14T13:20:54.882Z,17.52
2022-10-14T13:21:57.900Z,21.53
2022-10-14T13:23:21.259Z,19.47
2022-10-14T13:24:28.372Z,23.83
2022-10-14T13:25:31.593Z,18.98
2022-10-14T13:26:41.249Z,18.07
2022-10-14T13:27:52.572Z,21.03
2022-10-14T13:29:10.871Z,21.00
2022-10-14T13:30:18.593Z,21.77
2022-10-14T13:31:27.603Z,21.70
2022-10-14T13:32:39.869Z,19.35
2022-10-14T13:33:48.344Z,19.13
2022-10-14T13:34:58.526Z,19.50
2022-10-14T13:36:11.864Z,23.30
2022-10-14T13:37:30.649Z,20.93
2022-10-14T13:38:33.430Z,27.35
2022-10-14T13:39:36.328Z,19.65
2022-10-14T13:40:44.022Z,24.90
2022-10-14T13:41:48.813Z,23.58
2022-10-14T13:42:53.244Z,22.17
2022-10-14T13:43:56.498Z,17.38
2022-10-14T13:45:06.435Z,20.90
2022-10-14T13:46:14.995Z,17.20
2022-10-14T13:47:22.346Z,20.08
2022-10-14T13:48:31.463Z,22.27
2022-10-14T13:49:40.301Z,25.37
2022-10-14T13:50:42.790Z,21.87
2022-10-14T13:51:49.224Z,26.03
2022-10-14T13:52:56.529Z,22.33
2022-10-14T13:54:01.408Z,19.10
2022-10-14T13:55:14.896Z,19.80
2022-10-14T13:56:21.782Z,26.40
2022-10-14T13:58:48.152Z,17.93
2022-10-14T14:00:28.139Z,19.80
2022-10-14T14:01:20.586Z,17.85
2022-10-14T14:02:27.195Z,21.92
2022-10-14T14:03:31.566Z,19.00
2022-10-14T14:04:37.544Z,18.40
2022-10-14T14:05:42.066Z,21.92
2022-10-14T14:07:03.117Z,22.40
2022-10-14T14:09:39.754Z,18.15
2022-10-14T14:11:14.494Z,21.13
2022-10-14T14:12:14.140Z,22.05
2022-10-14T14:13:17.177Z,19.42
2022-10-14T14:14:22.460Z,20.03
2022-10-14T14:15:26.648Z,26.58
2022-10-14T14:16:33.198Z,20.88
2022-10-14T14:17:35.495Z,19.83
2022-10-14T14:18:55.628Z,19.60
2022-10-14T14:19:59.845Z,20.35
2022-10-14T14:21:02.136Z,18.10
2022-10-14T14:22:15.004Z,16.40
2022-10-14T14:23:16.608Z,15.70
2022-10-14T14:24:23.843Z,15.40
2022-10-14T14:25:36.069Z,16.87
2022-10-14T14:26:39.550Z,20.73